Route Details

Aircraft Information
Group: Hub to Hub
Types: B744, MD11, B763, B762, B752, B738
Route Data
Distance: 1599nm
Duration: 4h 45m
Origin METAR: KSDF 100430Z 18003KT 2 1/2SM BR BKN006 OVC048 09/08 A3015 RMK AO2 TWR VIS 3 T00890083
Dest. METAR: KLAX 100353Z 00000KT 10SM FEW017 13/08 A3012 RMK AO2 SLP200 T01330083 $
Freight Data
(for Dec 10, 2022)
Load Factor:
60%
Manifested Cargo: 63,265lbs
Financial History
Total Freight: 0lbs
Average Load: 0lbs/flt
Fuel Used: 0lbs
Avg. Fuel Used: 0lbs/flt
Fuel Expense: $0
Avg. Fuel Expense: $0
Avg. Fuel Cost: $0/lbs
Total Gross Income: $0
Pilot Pay: $0
Total Expenses: $0
Total Revenue: $0
Average Revenue: $0

Capitol Logistics 344




KSDF
Muhammad Ali International Airport
Louisville, Kentucky
KLAX
Los Angeles International Airport
Los Angeles, California

Activity Log

Date Flight Route Aircraft Duration
No Flights Yet